Time;durP1;ratioP1;P1;durP2;ratioP2;P2;SDS_P1;SDS_P2;PMS_P1;PMS_P2;Temp;Humidity;BMP_temperature;BMP_pressure;BME280_temperature;BME280_humidity;BME280_pressure;Samples;Min_cycle;Max_cycle;Signal;HPM_P1;HPM_P2
2022/05/10 00:01:47;;;;;;;2.60;2.40;;;;;;;14.52;66.72;99146.38;4090934;29;20291;-55
2022/05/10 00:03:49;;;;;;;3.40;3.10;;;;;;;14.52;66.45;99135.38;4108978;28;20211;-55
2022/05/10 00:05:51;;;;;;;2.97;2.47;;;;;;;14.53;66.66;99135.13;4108393;28;20215;-55
2022/05/10 00:07:53;;;;;;;2.85;2.65;;;;;;;14.50;66.96;99141.13;4112359;28;20222;-54
2022/05/10 00:09:55;;;;;;;2.92;2.65;;;;;;;14.45;66.85;99132.00;4107794;28;20211;-55
2022/05/10 00:11:58;;;;;;;3.03;2.80;;;;;;;14.39;66.85;99131.13;4104024;28;20206;-54
2022/05/10 00:13:59;;;;;;;3.05;2.85;;;;;;;14.34;66.81;99122.78;4105662;28;21243;-55
2022/05/10 00:16:01;;;;;;;3.78;3.47;;;;;;;14.31;66.65;99128.81;4110608;28;20215;-55
2022/05/10 00:18:03;;;;;;;3.15;2.88;;;;;;;14.33;67.11;99121.13;4106254;28;20245;-55
2022/05/10 00:20:13;;;;;;;3.67;3.28;;;;;;;14.28;67.14;99129.34;4108258;28;20210;-55
2022/05/10 00:22:15;;;;;;;3.25;2.95;;;;;;;14.20;67.45;99118.78;4106050;28;20270;-55
2022/05/10 00:24:17;;;;;;;3.47;3.17;;;;;;;14.14;67.08;99117.03;4105244;28;20924;-54
2022/05/10 00:26:18;;;;;;;4.38;4.07;;;;;;;14.11;67.53;99117.53;4105139;28;20206;-55
2022/05/10 00:28:20;;;;;;;3.70;3.40;;;;;;;14.10;67.41;99110.38;4102877;28;20550;-54
2022/05/10 00:30:22;;;;;;;4.18;3.15;;;;;;;14.08;67.64;99109.81;4094722;28;20223;-53
2022/05/10 00:32:28;;;;;;;3.10;2.90;;;;;;;14.06;67.31;99101.00;4108241;28;20671;-53
2022/05/10 00:34:30;;;;;;;3.25;3.05;;;;;;;14.05;67.14;99106.75;4106242;28;20243;-53
2022/05/10 00:36:32;;;;;;;3.85;3.55;;;;;;;14.02;67.21;99102.59;4106942;28;20649;-55
2022/05/10 00:38:39;;;;;;;3.65;3.35;;;;;;;14.02;67.03;99108.09;4107663;28;20214;-53
2022/05/10 00:40:40;;;;;;;3.83;3.53;;;;;;;14.02;66.96;99108.09;4106073;28;20273;-54
2022/05/10 00:43:10;;;;;;;3.15;2.85;;;;;;;14.04;67.02;99116.91;4107802;28;20199;-54
2022/05/10 00:45:15;;;;;;;3.70;3.40;;;;;;;14.01;66.91;99111.09;4118373;28;20211;-55
2022/05/10 00:47:37;;;;;;;2.95;2.75;;;;;;;13.95;67.03;99117.63;4104826;28;20313;-54
2022/05/10 00:49:46;;;;;;;3.15;2.92;;;;;;;13.89;66.68;99113.16;4121321;28;20280;-55
2022/05/10 00:52:03;;;;;;;3.03;2.72;;;;;;;13.86;66.72;99110.91;4110053;28;21018;-55
2022/05/10 00:54:13;;;;;;;3.05;2.75;;;;;;;13.81;67.17;99117.19;4120703;28;20217;-54
2022/05/10 00:56:24;;;;;;;2.33;2.13;;;;;;;13.71;67.40;99111.53;4105933;28;20779;-52
2022/05/10 00:58:55;;;;;;;3.08;2.80;;;;;;;13.67;67.37;99104.06;4088779;28;20210;-54
2022/05/10 01:00:58;;;;;;;3.03;2.80;;;;;;;13.60;67.14;99109.78;4099699;28;20219;-54
2022/05/10 01:03:24;;;;;;;3.53;3.22;;;;;;;13.58;67.67;99111.09;4117002;28;20206;-54
2022/05/10 01:05:31;;;;;;;3.17;2.88;;;;;;;13.56;67.58;99107.78;4106966;28;20210;-55
2022/05/10 01:07:38;;;;;;;2.80;2.60;;;;;;;13.59;67.83;99101.75;4120238;28;20234;-54
2022/05/10 01:09:51;;;;;;;5.18;3.00;;;;;;;13.53;68.08;99098.13;4111224;28;20207;-55
2022/05/10 01:12:05;;;;;;;3.65;3.35;;;;;;;13.48;68.13;99095.31;4122692;28;20803;-54
2022/05/10 01:14:16;;;;;;;3.22;3.03;;;;;;;13.48;68.45;99099.97;4106420;28;20207;-55
2022/05/10 01:16:23;;;;;;;3.47;3.17;;;;;;;13.47;68.27;99099.13;4105679;28;20206;-54
2022/05/10 01:18:25;;;;;;;2.95;2.75;;;;;;;13.49;68.39;99096.16;4103872;28;20214;-54
2022/05/10 01:20:39;;;;;;;4.32;3.38;;;;;;;13.47;67.53;99093.66;4105911;28;20216;-54
2022/05/10 01:22:59;;;;;;;3.08;2.85;;;;;;;13.45;67.81;99084.81;4104783;28;20204;-54
2022/05/10 01:25:29;;;;;;;3.22;2.90;;;;;;;13.44;67.84;99091.38;4118657;28;20221;-54
2022/05/10 01:28:08;;;;;;;2.75;2.55;;;;;;;13.39;67.74;99085.84;4119230;28;21082;-54
2022/05/10 01:30:14;;;;;;;4.22;3.92;;;;;;;13.38;67.48;99086.91;4119632;28;20234;-54
2022/05/10 01:34:51;;;;;;;2.63;2.42;;;;;;;13.39;67.34;99074.84;4104630;28;20250;-54
2022/05/10 01:36:57;;;;;;;3.40;3.10;;;;;;;13.37;67.50;99077.00;4105234;28;20701;-55
2022/05/10 01:39:30;;;;;;;4.07;3.78;;;;;;;13.33;67.45;99069.50;4109923;28;20229;-54
2022/05/10 01:41:35;;;;;;;4.47;3.35;;;;;;;13.26;67.77;99077.13;4117940;28;20229;-55
2022/05/10 01:43:54;;;;;;;3.33;3.13;;;;;;;13.25;67.58;99067.22;4117650;28;20292;-55
2022/05/10 01:46:04;;;;;;;3.20;3.00;;;;;;;13.22;67.98;99068.53;4117867;28;20217;-55
2022/05/10 01:48:08;;;;;;;2.85;2.58;;;;;;;13.19;67.96;99063.56;4117016;28;20698;-55
2022/05/10 01:50:25;;;;;;;3.53;3.30;;;;;;;13.12;67.92;99062.06;4107104;28;20214;-55
2022/05/10 01:52:35;;;;;;;3.45;3.15;;;;;;;13.05;68.22;99056.75;4117834;28;20252;-55
2022/05/10 01:54:39;;;;;;;3.38;3.08;;;;;;;13.02;67.92;99050.91;4106501;28;20217;-55
2022/05/10 01:56:42;;;;;;;2.80;2.60;;;;;;;13.05;68.21;99051.25;4121363;28;20229;-55
2022/05/10 01:58:45;;;;;;;3.70;3.50;;;;;;;13.06;68.28;99044.69;4111103;28;20222;-55
2022/05/10 02:00:55;;;;;;;3.17;2.97;;;;;;;13.02;68.16;99046.28;4102120;28;20688;-55
2022/05/10 02:03:01;;;;;;;2.92;2.72;;;;;;;12.98;68.50;99050.59;4104419;28;20210;-54
2022/05/10 02:05:05;;;;;;;15.27;3.40;;;;;;;12.94;68.35;99052.16;4093667;28;20286;-54
2022/05/10 02:07:13;;;;;;;3.63;3.28;;;;;;;12.92;68.80;99046.09;4102791;28;20231;-55
2022/05/10 02:09:23;;;;;;;3.83;3.53;;;;;;;12.92;68.76;99042.50;4117287;28;20217;-55
2022/05/10 02:11:25;;;;;;;3.75;3.15;;;;;;;12.76;69.50;99038.69;4116334;28;20206;-54
2022/05/10 02:13:37;;;;;;;3.67;3.47;;;;;;;12.79;69.58;99045.59;4108865;28;20542;-55
2022/05/10 02:16:05;;;;;;;3.35;3.08;;;;;;;12.83;68.90;99036.59;4101649;28;20261;-56
2022/05/10 02:18:15;;;;;;;2.97;2.78;;;;;;;12.86;68.73;99038.03;4120816;28;20308;-56
2022/05/10 02:20:24;;;;;;;3.38;3.13;;;;;;;12.86;69.01;99035.28;4103303;28;20302;-55
2022/05/10 02:22:32;;;;;;;4.07;3.78;;;;;;;12.80;68.79;99037.13;4117670;28;20264;-55
2022/05/10 02:24:39;;;;;;;3.90;3.70;;;;;;;12.79;68.67;99038.22;4120129;28;20218;-55
2022/05/10 02:26:55;;;;;;;2.60;2.40;;;;;;;12.81;69.23;99033.28;4104333;28;20644;-55
2022/05/10 02:29:26;;;;;;;3.78;3.50;;;;;;;12.84;68.47;99032.78;4119179;28;20262;-54
2022/05/10 02:34:11;;;;;;;3.70;3.40;;;;;;;12.86;68.46;99030.63;4103473;28;20210;-55
2022/05/10 02:36:13;;;;;;;3.75;3.45;;;;;;;12.85;68.26;99031.69;4093232;28;20368;-53
2022/05/10 02:38:18;;;;;;;3.15;2.85;;;;;;;12.84;68.30;99035.53;4104371;28;20230;-53
2022/05/10 02:40:19;;;;;;;3.92;3.63;;;;;;;12.82;68.27;99034.09;4104525;28;20195;-53
2022/05/10 02:42:22;;;;;;;2.90;2.70;;;;;;;12.81;68.01;99030.53;4105408;28;20329;-55
2022/05/10 02:44:24;;;;;;;4.20;3.90;;;;;;;12.78;68.17;99039.28;4095142;28;20267;-55
2022/05/10 02:46:27;;;;;;;4.03;3.72;;;;;;;12.72;68.29;99034.81;4109369;28;20258;-55
2022/05/10 02:48:32;;;;;;;3.42;3.22;;;;;;;12.71;68.53;99033.13;4104856;28;20210;-55
2022/05/10 02:50:34;;;;;;;4.00;3.78;;;;;;;12.64;68.56;99021.47;4119194;28;20221;-53
2022/05/10 02:52:36;;;;;;;4.03;3.63;;;;;;;12.58;68.69;99019.72;4105085;28;20207;-56
2022/05/10 02:54:38;;;;;;;3.53;3.22;;;;;;;12.53;68.72;99022.41;4104293;28;20203;-55
2022/05/10 02:56:40;;;;;;;4.13;3.83;;;;;;;12.52;68.80;99012.53;4106270;28;20235;-55
2022/05/10 02:58:46;;;;;;;3.63;3.33;;;;;;;12.50;69.06;99019.34;4107597;28;20214;-55
2022/05/10 03:00:49;;;;;;;3.33;2.92;;;;;;;12.50;69.02;99020.16;4103137;28;20210;-56
2022/05/10 03:02:56;;;;;;;3.45;3.15;;;;;;;12.47;68.75;99017.94;4102591;28;22196;-55
2022/05/10 03:04:59;;;;;;;3.22;3.03;;;;;;;12.47;69.03;99017.09;4102934;28;20649;-56
2022/05/10 03:07:01;;;;;;;3.72;3.42;;;;;;;12.45;68.72;99020.06;4104744;28;20747;-55
2022/05/10 03:09:04;;;;;;;3.90;3.47;;;;;;;12.46;68.60;99018.16;4089161;28;20222;-56
2022/05/10 03:11:09;;;;;;;4.07;3.78;;;;;;;12.47;68.86;99020.66;4119335;28;20209;-55
2022/05/10 03:13:11;;;;;;;4.28;3.97;;;;;;;12.48;69.00;99016.00;4101426;28;20229;-55
2022/05/10 03:15:12;;;;;;;3.60;3.30;;;;;;;12.48;68.89;99014.09;4117832;28;20237;-55
2022/05/10 03:17:15;;;;;;;2.85;2.65;;;;;;;12.46;68.45;99024.50;4108039;28;20794;-55
2022/05/10 03:19:16;;;;;;;3.90;3.60;;;;;;;12.42;68.99;99022.47;4107850;28;20207;-54
2022/05/10 03:21:19;;;;;;;3.65;3.35;;;;;;;12.40;68.31;99020.00;4103829;28;20226;-54
2022/05/10 03:23:21;;;;;;;3.63;3.42;;;;;;;12.41;68.65;99010.69;4108966;28;20207;-54
2022/05/10 03:25:23;;;;;;;3.40;3.15;;;;;;;12.38;68.87;99005.69;4106799;28;20246;-55
2022/05/10 03:27:25;;;;;;;4.45;4.05;;;;;;;12.39;69.01;99012.00;4105572;28;20746;-55
2022/05/10 03:29:27;;;;;;;3.25;3.03;;;;;;;12.37;68.78;99020.50;4089625;28;20251;-55
2022/05/10 03:31:30;;;;;;;3.97;3.67;;;;;;;12.35;68.86;99016.31;4111499;28;20207;-54
2022/05/10 03:33:32;;;;;;;3.42;3.22;;;;;;;12.34;68.70;99015.50;4106855;28;20293;-54
2022/05/10 03:35:34;;;;;;;4.03;3.33;;;;;;;12.31;68.57;99026.16;4107902;28;20883;-55
2022/05/10 03:37:36;;;;;;;3.33;3.05;;;;;;;12.27;68.51;99019.50;4120236;28;20230;-55
2022/05/10 03:39:37;;;;;;;3.67;3.45;;;;;;;12.19;68.46;99014.41;4118822;28;20749;-55
2022/05/10 03:41:39;;;;;;;3.00;2.80;;;;;;;12.18;68.71;99016.31;4105466;28;20235;-54
2022/05/10 03:43:41;;;;;;;4.03;3.72;;;;;;;12.18;68.95;99016.31;4120481;28;20198;-55
2022/05/10 03:45:42;;;;;;;4.07;3.78;;;;;;;12.22;68.77;99025.72;4108472;28;20261;-55
2022/05/10 03:47:45;;;;;;;3.22;3.03;;;;;;;12.24;68.58;99023.56;4107184;28;22386;-54
2022/05/10 03:49:47;;;;;;;3.45;3.22;;;;;;;12.30;68.88;99021.75;4121758;28;20209;-55
2022/05/10 03:51:49;;;;;;;7.28;3.13;;;;;;;12.27;68.53;99020.34;4118597;28;20601;-55
2022/05/10 03:53:51;;;;;;;3.17;2.97;;;;;;;12.29;68.42;99023.66;4110978;28;20237;-54
2022/05/10 03:55:52;;;;;;;3.00;2.80;;;;;;;12.29;68.74;99025.56;4120503;28;20273;-55
2022/05/10 03:57:55;;;;;;;3.72;3.42;;;;;;;12.28;68.76;99024.75;4110152;28;21269;-55
2022/05/10 03:59:57;;;;;;;3.83;3.45;;;;;;;12.28;68.99;99027.47;4104324;28;20269;-55
2022/05/10 04:01:59;;;;;;;3.22;2.92;;;;;;;12.31;68.77;99026.97;4106308;28;20697;-55
2022/05/10 04:04:04;;;;;;;3.90;3.60;;;;;;;12.30;68.95;99025.31;4104419;28;21125;-55
2022/05/10 04:06:09;;;;;;;3.13;2.90;;;;;;;12.29;69.06;99028.28;4106510;28;20262;-55
2022/05/10 04:08:10;;;;;;;3.88;3.63;;;;;;;12.28;69.03;99016.50;4113695;28;20234;-55
2022/05/10 04:10:13;;;;;;;3.40;3.20;;;;;;;12.28;69.08;99024.75;4107040;28;20204;-55
2022/05/10 04:12:15;;;;;;;3.50;3.20;;;;;;;12.28;69.33;99022.00;4121326;28;20210;-55
2022/05/10 04:14:17;;;;;;;4.15;3.80;;;;;;;12.29;69.15;99020.06;4108327;28;20302;-55
2022/05/10 04:16:19;;;;;;;3.83;3.53;;;;;;;12.31;69.29;99023.41;4104980;28;20207;-55
2022/05/10 04:18:21;;;;;;;3.63;3.33;;;;;;;12.31;69.21;99026.97;4089485;28;20211;-55
2022/05/10 04:20:22;;;;;;;3.00;2.78;;;;;;;12.32;69.40;99028.66;4109655;28;20603;-55
2022/05/10 04:22:24;;;;;;;4.45;4.13;;;;;;;12.32;69.26;99016.84;4105808;28;20597;-55
2022/05/10 04:24:47;;;;;;;2.60;2.40;;;;;;;12.31;69.73;99024.22;4107168;28;20305;-55
2022/05/10 04:26:49;;;;;;;4.18;3.88;;;;;;;12.30;69.85;99013.53;4103799;28;20759;-55
2022/05/10 04:28:51;;;;;;;4.50;4.15;;;;;;;12.29;70.18;99017.31;4106803;28;20273;-55
2022/05/10 04:30:53;;;;;;;3.60;3.30;;;;;;;12.29;70.07;99017.31;4106829;28;20310;-55
2022/05/10 04:32:59;;;;;;;3.90;3.50;;;;;;;12.29;70.14;99018.16;4095889;28;20749;-55
2022/05/10 04:35:01;;;;;;;3.78;3.47;;;;;;;12.30;69.65;99025.31;4105783;28;20222;-55
2022/05/10 04:37:03;;;;;;;4.28;3.97;;;;;;;12.33;69.59;99024.84;4096346;28;20604;-54
2022/05/10 04:39:05;;;;;;;4.35;4.05;;;;;;;12.36;69.56;99029.81;4121203;28;20816;-54
2022/05/10 04:41:24;;;;;;;3.95;3.65;;;;;;;12.38;69.61;99021.34;4104326;28;20262;-54
2022/05/10 04:43:26;;;;;;;3.08;2.60;;;;;;;12.43;69.55;99035.16;4093181;28;20211;-54
2022/05/10 04:45:28;;;;;;;3.25;3.03;;;;;;;12.44;69.21;99032.13;4120143;28;20676;-53
2022/05/10 04:47:30;;;;;;;3.42;3.13;;;;;;;12.47;69.62;99034.41;4119674;28;20846;-55
2022/05/10 04:49:31;;;;;;;4.00;3.70;;;;;;;12.47;69.44;99031.66;4104907;28;21031;-55
2022/05/10 04:51:37;;;;;;;3.67;3.47;;;;;;;12.48;69.50;99035.22;4089567;28;20207;-55
2022/05/10 04:53:42;;;;;;;4.18;3.78;;;;;;;12.48;68.97;99032.47;4105720;28;20214;-54
2022/05/10 04:55:44;;;;;;;3.47;3.17;;;;;;;12.50;69.31;99031.13;4106414;28;20347;-56
2022/05/10 04:57:46;;;;;;;3.20;2.90;;;;;;;12.55;69.22;99033.97;4103720;28;20235;-56
2022/05/10 04:59:50;;;;;;;3.88;3.58;;;;;;;12.57;68.97;99034.53;4109792;28;20207;-54
2022/05/10 05:01:52;;;;;;;2.78;2.58;;;;;;;12.60;68.83;99033.22;4099157;28;20235;-53
2022/05/10 05:03:56;;;;;;;3.88;3.58;;;;;;;12.65;69.17;99039.63;4108706;28;20286;-55
2022/05/10 05:05:58;;;;;;;3.90;3.50;;;;;;;12.68;68.83;99033.63;4105175;28;20302;-54
2022/05/10 05:08:00;;;;;;;3.90;3.67;;;;;;;12.72;69.01;99039.47;4119396;28;20235;-54
2022/05/10 05:10:06;;;;;;;3.42;3.22;;;;;;;12.71;68.97;99038.63;4099480;28;20215;-54
2022/05/10 05:12:08;;;;;;;3.55;3.22;;;;;;;12.73;68.89;99041.13;4118887;28;20681;-54
2022/05/10 05:14:10;;;;;;;3.72;3.42;;;;;;;12.77;68.75;99037.59;4092272;28;20215;-53
2022/05/10 05:16:12;;;;;;;6.13;4.80;;;;;;;12.80;68.88;99037.13;4105483;28;20633;-53
2022/05/10 05:18:14;;;;;;;3.70;3.40;;;;;;;12.78;69.15;99039.28;4101587;28;20246;-54
2022/05/10 05:20:16;;;;;;;3.03;2.83;;;;;;;12.62;70.58;99034.63;4116355;28;20619;-54
2022/05/10 05:22:18;;;;;;;3.30;3.10;;;;;;;12.38;71.30;99041.34;4100921;28;20231;-55
2022/05/10 05:24:20;;;;;;;4.95;4.57;;;;;;;12.38;71.56;99043.28;4099923;28;20215;-56
2022/05/10 05:26:22;;;;;;;4.13;3.65;;;;;;;12.40;71.58;99032.88;4104753;28;20222;-52
2022/05/10 05:28:24;;;;;;;7.45;4.07;;;;;;;12.40;72.20;99047.44;4105287;28;20253;-54
2022/05/10 05:30:29;;;;;;;3.90;3.60;;;;;;;12.50;71.91;99046.78;4090123;28;20220;-54
2022/05/10 05:32:34;;;;;;;4.43;4.13;;;;;;;12.45;72.46;99044.78;4105754;28;20221;-54
2022/05/10 05:34:36;;;;;;;4.22;3.83;;;;;;;12.62;72.06;99039.28;4107454;28;20253;-54
2022/05/10 05:36:38;;;;;;;4.57;4.28;;;;;;;12.66;71.24;99041.31;4103483;28;20214;-54
2022/05/10 05:38:40;;;;;;;13.40;3.80;;;;;;;12.65;72.34;99045.09;4118012;28;21205;-54
2022/05/10 05:40:42;;;;;;;4.32;4.03;;;;;;;12.80;72.36;99048.09;4102447;28;20206;-55
2022/05/10 05:42:45;;;;;;;3.80;3.50;;;;;;;12.97;72.41;99048.13;4102099;28;20231;-54
2022/05/10 05:44:50;;;;;;;3.35;3.05;;;;;;;13.01;72.76;99049.25;4106873;28;21947;-55
2022/05/10 05:46:54;;;;;;;3.80;3.50;;;;;;;13.11;72.60;99052.97;4103877;28;20250;-55
2022/05/10 05:49:01;;;;;;;3.40;3.10;;;;;;;13.21;72.06;99055.88;4102247;28;20209;-54
2022/05/10 05:51:05;;;;;;;4.72;4.30;;;;;;;13.25;72.44;99051.53;4102164;28;20208;-54
2022/05/10 05:53:10;;;;;;;3.30;3.10;;;;;;;13.27;71.81;99049.38;4119277;28;20679;-55
2022/05/10 05:55:13;;;;;;;3.90;3.60;;;;;;;13.34;72.18;99050.03;4106488;28;20215;-55
2022/05/10 05:57:16;;;;;;;3.28;3.05;;;;;;;13.37;71.74;99043.19;4110314;28;21209;-55
2022/05/10 05:59:21;;;;;;;4.20;3.90;;;;;;;13.40;72.16;99049.00;4102794;28;20213;-55
2022/05/10 06:01:25;;;;;;;3.72;3.42;;;;;;;13.44;72.21;99033.66;4103211;28;20647;-54
2022/05/10 06:03:29;;;;;;;10.23;4.75;;;;;;;13.46;72.00;99047.16;4104105;28;20309;-54
2022/05/10 06:05:32;;;;;;;3.05;2.85;;;;;;;13.57;71.25;99048.94;4093610;29;20207;-54
2022/05/10 06:07:37;;;;;;;4.47;4.18;;;;;;;13.62;70.97;99041.59;4104658;28;20231;-55
2022/05/10 06:09:44;;;;;;;3.50;3.25;;;;;;;13.62;70.97;99041.59;4091110;28;20195;-55
2022/05/10 06:11:51;;;;;;;4.43;4.00;;;;;;;13.49;70.33;99039.22;4092832;28;20262;-55
2022/05/10 06:13:52;;;;;;;4.65;4.25;;;;;;;13.59;71.61;99039.34;4118902;28;21243;-55
2022/05/10 06:15:55;;;;;;;5.03;4.63;;;;;;;13.66;70.60;99037.25;4118640;28;20206;-54
2022/05/10 06:17:59;;;;;;;3.90;3.60;;;;;;;13.70;70.75;99038.38;4110599;28;20230;-55
2022/05/10 06:20:04;;;;;;;4.47;4.18;;;;;;;13.98;71.48;99040.88;4101064;28;20226;-54
2022/05/10 06:22:07;;;;;;;4.22;3.85;;;;;;;14.18;71.02;99041.13;4099077;28;20257;-54
2022/05/10 06:24:12;;;;;;;13.70;4.78;;;;;;;14.38;70.09;99046.81;4102739;28;20213;-54
2022/05/10 06:26:14;;;;;;;4.28;3.97;;;;;;;14.56;69.87;99048.38;4102880;28;20207;-54
2022/05/10 06:28:19;;;;;;;4.88;4.47;;;;;;;14.81;68.86;99045.81;4101872;28;20223;-54
2022/05/10 06:30:25;;;;;;;4.15;3.75;;;;;;;15.02;67.86;99048.44;4100732;28;20215;-54
2022/05/10 06:32:27;;;;;;;4.30;3.92;;;;;;;15.16;67.65;99057.09;4088753;28;20207;-55
2022/05/10 06:34:29;;;;;;;4.25;3.88;;;;;;;15.24;67.44;99051.88;4105032;28;20203;-55
2022/05/10 06:36:31;;;;;;;4.70;4.35;;;;;;;15.26;67.50;99054.38;4089291;28;20219;-53
2022/05/10 06:38:34;;;;;;;3.83;3.53;;;;;;;15.56;66.67;99047.13;4100734;28;20269;-53
2022/05/10 06:40:36;;;;;;;4.50;4.20;;;;;;;15.75;66.15;99048.31;4103664;28;20673;-53
2022/05/10 06:42:38;;;;;;;4.40;4.10;;;;;;;15.79;66.51;99043.94;4116675;28;21083;-54
2022/05/10 06:44:40;;;;;;;4.53;4.13;;;;;;;15.78;66.17;99042.28;4103584;28;20223;-54
2022/05/10 06:46:42;;;;;;;4.40;4.10;;;;;;;16.06;65.77;99043.72;4102750;28;20281;-54
2022/05/10 06:48:45;;;;;;;4.13;3.83;;;;;;;16.30;64.76;99040.19;4107218;28;20314;-54
2022/05/10 06:50:47;;;;;;;3.70;3.40;;;;;;;16.45;64.85;99043.00;4107093;28;20273;-55
2022/05/10 06:52:51;;;;;;;3.97;3.67;;;;;;;16.52;63.95;99038.03;4119383;28;20202;-54
2022/05/10 06:54:54;;;;;;;4.05;3.72;;;;;;;16.14;64.06;99041.25;4109176;28;20638;-53
2022/05/10 06:56:56;;;;;;;3.80;3.47;;;;;;;16.40;64.72;99034.72;4114798;28;20234;-52
2022/05/10 06:58:58;;;;;;;3.95;3.65;;;;;;;16.46;64.40;99030.84;4105516;28;20207;-54
2022/05/10 07:01:00;;;;;;;3.28;2.97;;;;;;;16.51;64.67;99028.09;4103283;28;20222;-53
2022/05/10 07:03:10;;;;;;;4.03;3.72;;;;;;;16.70;63.56;99033.91;4118422;28;20230;-54
2022/05/10 07:05:14;;;;;;;2.95;2.67;;;;;;;16.60;64.46;99018.16;4091847;28;20203;-55
2022/05/10 07:07:17;;;;;;;3.58;3.28;;;;;;;16.74;65.17;99024.78;4105149;28;20261;-54
2022/05/10 07:09:18;;;;;;;4.25;3.95;;;;;;;16.86;64.17;99021.72;4108655;28;20210;-54
2022/05/10 07:11:22;;;;;;;3.20;3.00;;;;;;;16.83;64.36;99023.09;4105710;28;20211;-54
2022/05/10 07:13:26;;;;;;;3.55;3.33;;;;;;;17.36;63.87;99027.97;4093421;28;20207;-54
2022/05/10 07:15:28;;;;;;;3.35;3.05;;;;;;;17.71;62.40;99027.91;4116947;28;20214;-54
2022/05/10 07:17:29;;;;;;;3.58;3.28;;;;;;;17.94;62.63;99029.97;4119299;28;20759;-53
2022/05/10 07:19:31;;;;;;;2.97;2.78;;;;;;;18.37;61.75;99035.56;4094406;28;20207;-53
2022/05/10 07:21:33;;;;;;;4.13;3.83;;;;;;;18.70;60.23;99031.16;4104840;28;20223;-53
2022/05/10 07:23:38;;;;;;;3.78;3.28;;;;;;;18.91;60.44;99021.56;4120564;28;20667;-54
2022/05/10 07:25:41;;;;;;;3.40;3.10;;;;;;;19.09;60.59;99034.69;4103916;28;20247;-55
2022/05/10 07:27:43;;;;;;;3.25;3.05;;;;;;;19.10;59.75;99030.78;4118752;28;20711;-55
2022/05/10 07:29:46;;;;;;;2.67;2.47;;;;;;;19.26;59.55;99029.56;4104168;28;22360;-53
2022/05/10 07:31:53;;;;;;;2.60;2.40;;;;;;;19.49;59.04;99032.34;4102441;28;20206;-54
2022/05/10 07:33:58;;;;;;;7.97;3.05;;;;;;;19.65;58.71;99024.69;4103335;28;20207;-52
2022/05/10 07:38:20;;;;;;;2.65;2.45;;;;;;;19.65;59.02;99030.22;4101444;28;20863;-53
2022/05/10 07:40:22;;;;;;;4.72;2.65;;;;;;;19.98;57.72;99029.25;4105243;28;20219;-54
2022/05/10 07:42:24;;;;;;;2.70;2.35;;;;;;;20.13;57.48;99027.13;4102288;28;20265;-53
2022/05/10 07:44:26;;;;;;;3.03;2.42;;;;;;;20.42;56.78;99030.59;4102396;28;20234;-54
2022/05/10 07:46:28;;;;;;;2.45;2.25;;;;;;;20.59;56.54;99027.25;4103218;28;20217;-53
2022/05/10 07:48:29;;;;;;;2.63;2.42;;;;;;;20.60;57.13;99028.91;4098211;28;20753;-54
2022/05/10 07:50:32;;;;;;;2.60;2.40;;;;;;;20.87;56.37;99032.66;4095912;28;20206;-53
2022/05/10 07:52:34;;;;;;;2.05;1.95;;;;;;;21.03;55.99;99030.44;4096028;28;20214;-54
2022/05/10 07:54:36;;;;;;;2.78;2.58;;;;;;;21.21;54.51;99026.75;4099044;28;20297;-54
2022/05/10 07:56:38;;;;;;;2.22;2.03;;;;;;;21.24;54.49;99024.19;4098422;28;20225;-53
2022/05/10 07:58:41;;;;;;;2.65;2.45;;;;;;;21.43;54.91;99018.56;4099886;28;20572;-53
2022/05/10 08:00:44;;;;;;;2.50;2.30;;;;;;;21.51;54.67;99020.63;4101186;28;21672;-53
2022/05/10 08:02:46;;;;;;;3.00;2.70;;;;;;;21.72;54.76;99016.34;4101704;28;20316;-54
2022/05/10 08:04:48;;;;;;;2.92;2.72;;;;;;;21.83;54.91;99023.34;4078737;28;20629;-54
2022/05/10 08:06:50;;;;;;;2.17;1.98;;;;;;;21.94;52.32;99016.41;4102122;28;20230;-54
2022/05/10 08:08:53;;;;;;;3.42;3.13;;;;;;;21.20;54.28;99019.56;4083462;28;20772;-52
2022/05/10 08:10:55;;;;;;;4.28;3.17;;;;;;;21.57;54.79;99020.22;4096916;28;20222;-53
2022/05/10 08:12:57;;;;;;;2.58;2.28;;;;;;;22.05;53.87;99015.88;4097937;28;20281;-52
2022/05/10 08:14:59;;;;;;;13.15;2.20;;;;;;;22.27;53.15;99006.75;4115859;28;20214;-53
2022/05/10 08:17:00;;;;;;;11.52;2.70;;;;;;;22.51;53.07;99012.91;4115312;28;20293;-53
2022/05/10 08:19:02;;;;;;;2.38;2.17;;;;;;;22.64;52.27;99007.28;4100815;28;20289;-52
2022/05/10 08:21:04;;;;;;;2.67;2.38;;;;;;;22.90;52.38;99007.47;4099176;28;20267;-52
2022/05/10 08:23:06;;;;;;;3.03;2.55;;;;;;;23.15;52.03;99006.78;4101010;28;20572;-52
2022/05/10 08:25:11;;;;;;;2.70;2.50;;;;;;;22.71;52.51;99010.44;4102832;28;20677;-52
2022/05/10 08:27:13;;;;;;;2.85;2.00;;;;;;;22.85;52.10;99008.41;4099581;28;20230;-52
2022/05/10 08:29:15;;;;;;;2.70;2.50;;;;;;;23.32;51.02;99007.78;4103076;28;22181;-53
2022/05/10 08:31:20;;;;;;;2.35;2.15;;;;;;;23.52;51.34;99017.56;4119208;28;20214;-53
2022/05/10 08:33:28;;;;;;;2.38;2.03;;;;;;;23.44;51.10;99007.16;4106683;28;20309;-52
2022/05/10 08:35:30;;;;;;;2.10;1.90;;;;;;;23.23;50.32;99003.28;4101929;28;20209;-52
2022/05/10 08:37:32;;;;;;;2.15;2.05;;;;;;;22.87;51.43;98994.13;4099996;28;20308;-51
2022/05/10 08:39:33;;;;;;;2.13;1.92;;;;;;;23.27;51.75;98991.16;4101867;28;20764;-52
2022/05/10 08:41:43;;;;;;;2.05;1.88;;;;;;;23.68;51.21;99000.03;4105062;28;20222;-52
2022/05/10 08:43:49;;;;;;;2.58;1.98;;;;;;;23.54;51.67;98993.72;4119107;28;21152;-52
2022/05/10 08:45:52;;;;;;;2.40;2.15;;;;;;;24.04;51.09;98998.69;4102287;28;20277;-52
2022/05/10 08:47:55;;;;;;;2.72;2.25;;;;;;;24.06;50.80;98996.38;4101091;28;20238;-53
2022/05/10 08:50:07;;;;;;;4.90;2.20;;;;;;;23.99;50.24;98996.03;4100993;28;20213;-52
2022/05/10 08:52:32;;;;;;;2.42;2.22;;;;;;;23.90;48.81;98990.75;4114339;28;20207;-53
2022/05/10 08:54:37;;;;;;;2.80;2.13;;;;;;;23.56;49.55;98991.44;4103353;28;20534;-52
2022/05/10 08:56:55;;;;;;;2.22;2.03;;;;;;;23.58;49.23;98991.13;4100630;28;20203;-51
2022/05/10 08:59:21;;;;;;;1.83;1.73;;;;;;;23.45;49.43;98994.84;4102074;28;20218;-51
2022/05/10 09:01:27;;;;;;;2.30;2.05;;;;;;;23.96;50.23;98989.47;4103053;28;20205;-51
2022/05/10 09:03:38;;;;;;;2.03;1.85;;;;;;;24.30;50.00;98985.56;4117463;28;20218;-51
2022/05/10 09:05:43;;;;;;;3.10;1.80;;;;;;;24.76;49.36;98988.56;4104915;28;20268;-52
2022/05/10 09:07:53;;;;;;;1.90;1.77;;;;;;;24.65;47.85;98981.66;4107857;28;20249;-52
2022/05/10 09:10:08;;;;;;;1.80;1.70;;;;;;;24.92;48.68;98981.28;4116486;28;20205;-53
2022/05/10 09:12:23;;;;;;;2.10;1.73;;;;;;;25.16;48.43;98981.56;4101192;28;20193;-52
2022/05/10 09:14:34;;;;;;;1.58;1.48;;;;;;;25.23;47.86;98979.13;4103479;28;20201;-52
2022/05/10 09:16:36;;;;;;;1.88;1.77;;;;;;;25.23;46.60;98981.91;4113506;28;20202;-52
2022/05/10 09:18:42;;;;;;;2.90;2.60;;;;;;;24.87;47.31;98977.84;4106170;28;20217;-51
2022/05/10 09:20:52;;;;;;;2.10;2.00;;;;;;;24.48;46.68;98981.63;4100405;28;20254;-53
2022/05/10 09:23:06;;;;;;;1.98;1.60;;;;;;;24.79;47.07;98973.88;4116132;28;20268;-51
2022/05/10 09:25:36;;;;;;;2.17;1.55;;;;;;;24.72;46.81;98965.16;4101128;28;20214;-50
2022/05/10 09:27:38;;;;;;;1.70;1.60;;;;;;;25.05;45.49;98973.88;4100059;28;20368;-52
2022/05/10 09:29:45;;;;;;;1.63;1.42;;;;;;;25.28;45.01;98973.34;4099530;28;20265;-51
2022/05/10 09:36:31;;;;;;;1.60;1.50;;;;;;;25.48;41.72;98972.59;4103127;28;20206;-52
2022/05/10 09:38:33;;;;;;;1.17;1.08;;;;;;;25.56;42.60;98974.53;4104470;28;20215;-51
2022/05/10 09:40:41;;;;;;;2.03;1.73;;;;;;;25.82;42.39;98966.81;4104563;28;20202;-52
2022/05/10 09:42:46;;;;;;;2.80;1.27;;;;;;;25.74;43.21;98975.28;4115511;28;20212;-52
2022/05/10 09:45:00;;;;;;;1.58;1.48;;;;;;;25.58;43.72;98972.22;4104202;28;20250;-52
2022/05/10 09:47:12;;;;;;;1.70;1.60;;;;;;;25.46;42.32;98962.88;4103814;28;20265;-53
2022/05/10 09:49:29;;;;;;;1.30;1.20;;;;;;;25.48;42.62;98957.75;4117533;28;20213;-52
2022/05/10 09:51:34;;;;;;;2.95;1.48;;;;;;;25.58;43.74;98961.00;4117987;28;20206;-51
2022/05/10 09:53:39;;;;;;;1.73;1.63;;;;;;;26.05;44.40;98956.16;4088947;28;20583;-51
2022/05/10 09:55:57;;;;;;;1.83;1.52;;;;;;;26.28;42.62;98947.06;4101552;28;20311;-51
2022/05/10 09:58:20;;;;;;;2.90;1.42;;;;;;;26.32;43.88;98959.25;4109842;28;20230;-52
2022/05/10 10:00:41;;;;;;;1.52;1.42;;;;;;;26.35;43.12;98952.97;4105535;28;20218;-52
2022/05/10 10:02:43;;;;;;;2.33;1.52;;;;;;;26.40;42.67;98943.50;4103520;28;20277;-51
2022/05/10 10:04:48;;;;;;;3.83;1.55;;;;;;;26.70;42.43;98945.91;4097900;28;20230;-51